createdAt,value
2024-05-09T00:00:02.046Z,4.50
2024-05-09T00:03:10.485Z,4.30
2024-05-09T00:06:19.083Z,4.60
2024-05-09T00:09:25.643Z,4.30
2024-05-09T00:12:32.202Z,4.30
2024-05-09T00:15:39.362Z,4.10
2024-05-09T00:18:46.181Z,3.90
2024-05-09T00:21:53.195Z,4.60
2024-05-09T00:24:59.930Z,4.60
2024-05-09T00:28:07.404Z,4.60
2024-05-09T00:31:14.007Z,4.30
2024-05-09T00:34:21.076Z,4.20
2024-05-09T00:37:27.405Z,4.00
2024-05-09T00:40:41.017Z,4.50
2024-05-09T00:43:49.299Z,4.50
2024-05-09T00:46:55.977Z,4.20
2024-05-09T00:50:03.150Z,4.30
2024-05-09T00:53:12.050Z,4.30
2024-05-09T00:56:19.582Z,4.60
2024-05-09T00:59:26.684Z,4.60
2024-05-09T01:02:33.565Z,4.30
2024-05-09T01:05:41.610Z,4.50
2024-05-09T01:08:48.338Z,4.90
2024-05-09T01:11:54.812Z,4.40
2024-05-09T01:15:01.325Z,4.60
2024-05-09T01:18:12.364Z,4.40
2024-05-09T01:21:20.206Z,5.10
2024-05-09T01:24:26.714Z,4.80
2024-05-09T01:27:33.693Z,4.50
2024-05-09T01:30:39.999Z,4.60
2024-05-09T01:33:46.432Z,4.20
2024-05-09T01:36:52.763Z,4.40
2024-05-09T01:39:59.248Z,4.30
2024-05-09T01:43:06.032Z,4.60
2024-05-09T01:46:15.954Z,4.40
2024-05-09T01:49:22.425Z,4.90
2024-05-09T01:52:29.261Z,4.80
2024-05-09T01:55:35.374Z,5.30
2024-05-09T01:58:41.745Z,4.90
2024-05-09T02:01:56.599Z,4.90
2024-05-09T02:05:04.097Z,4.70
2024-05-09T02:08:15.746Z,4.60
2024-05-09T02:11:22.353Z,4.70
2024-05-09T02:14:28.731Z,4.50
2024-05-09T02:17:35.422Z,4.60
2024-05-09T02:20:44.035Z,4.70
2024-05-09T02:23:50.677Z,5.00
2024-05-09T02:26:56.968Z,4.70
2024-05-09T02:30:04.773Z,4.70
2024-05-09T02:33:14.701Z,5.00
2024-05-09T02:36:22.361Z,4.70
2024-05-09T02:39:28.762Z,5.20
2024-05-09T02:42:35.230Z,5.00
2024-05-09T02:45:42.162Z,5.00
2024-05-09T02:48:48.556Z,5.10
2024-05-09T02:51:54.846Z,4.80
2024-05-09T02:55:01.306Z,5.00
2024-05-09T02:58:08.913Z,5.10
2024-05-09T03:01:17.646Z,5.00
2024-05-09T03:04:23.945Z,5.00
2024-05-09T03:07:30.390Z,5.10
2024-05-09T03:10:38.583Z,4.90
2024-05-09T03:13:45.685Z,5.00
2024-05-09T03:16:52.292Z,4.80
2024-05-09T03:19:58.715Z,4.90
2024-05-09T03:23:06.194Z,4.80
2024-05-09T03:26:17.563Z,4.60
2024-05-09T03:29:24.212Z,4.70
2024-05-09T03:32:30.667Z,4.70
2024-05-09T03:35:39.141Z,4.90
2024-05-09T03:38:45.605Z,5.00
2024-05-09T03:41:52.533Z,5.00
2024-05-09T03:44:59.910Z,5.40
2024-05-09T03:48:07.721Z,5.20
2024-05-09T03:51:14.232Z,5.20
2024-05-09T03:54:22.132Z,5.40
2024-05-09T03:57:29.292Z,5.40
2024-05-09T04:00:38.805Z,4.90
2024-05-09T04:03:47.222Z,3.70
2024-05-09T04:06:53.763Z,3.70
2024-05-09T04:10:00.221Z,3.10
2024-05-09T04:13:06.849Z,2.70
2024-05-09T04:16:13.491Z,2.40
2024-05-09T04:19:20.282Z,2.60
2024-05-09T04:22:26.933Z,2.40
2024-05-09T04:25:33.979Z,2.40
2024-05-09T04:28:40.582Z,2.60
2024-05-09T04:31:47.634Z,2.60
2024-05-09T04:34:54.027Z,2.60
2024-05-09T04:38:00.989Z,2.60
2024-05-09T04:41:07.928Z,2.40
2024-05-09T04:44:14.697Z,2.30
2024-05-09T04:47:21.707Z,2.40
2024-05-09T04:50:36.316Z,2.50
2024-05-09T04:53:45.050Z,2.60
2024-05-09T04:56:52.130Z,2.60
2024-05-09T04:59:58.820Z,2.50
2024-05-09T05:03:07.031Z,2.60
2024-05-09T05:06:14.491Z,2.80
2024-05-09T05:09:21.621Z,3.10
2024-05-09T05:12:46.164Z,2.60
2024-05-09T05:15:55.237Z,2.30
2024-05-09T05:19:02.976Z,2.60
2024-05-09T05:22:09.367Z,2.40
2024-05-09T05:25:15.948Z,2.40
2024-05-09T05:28:22.434Z,2.50
2024-05-09T05:31:29.063Z,2.80
2024-05-09T05:34:35.801Z,2.70
2024-05-09T05:37:42.142Z,2.60
2024-05-09T05:40:48.743Z,2.70
2024-05-09T05:43:56.189Z,2.90
2024-05-09T05:47:02.623Z,2.90
2024-05-09T05:50:20.384Z,3.20
2024-05-09T05:53:31.755Z,3.10
2024-05-09T05:56:38.309Z,3.30
2024-05-09T05:59:45.102Z,3.40
2024-05-09T06:02:52.917Z,3.00
2024-05-09T06:06:04.291Z,3.00
2024-05-09T06:09:10.666Z,3.10
2024-05-09T06:12:17.455Z,2.60
2024-05-09T06:15:23.919Z,2.70
2024-05-09T06:18:30.559Z,2.50
2024-05-09T06:21:37.624Z,2.70
2024-05-09T06:24:45.347Z,2.40
2024-05-09T06:27:51.668Z,2.50
2024-05-09T06:30:58.591Z,2.30
2024-05-09T06:34:05.069Z,2.30
2024-05-09T06:37:11.845Z,2.60
2024-05-09T06:40:25.464Z,2.20
2024-05-09T06:43:36.812Z,2.20
2024-05-09T06:46:43.784Z,2.40
2024-05-09T06:49:50.495Z,2.10
2024-05-09T06:52:57.521Z,2.30
2024-05-09T06:56:04.601Z,2.10
2024-05-09T06:59:11.740Z,2.10
2024-05-09T07:02:18.621Z,2.20
2024-05-09T07:05:25.957Z,2.20
2024-05-09T07:08:33.344Z,2.40
2024-05-09T07:11:40.616Z,2.50
2024-05-09T07:14:47.214Z,3.00
2024-05-09T07:17:53.883Z,2.40
2024-05-09T07:21:00.964Z,2.40
2024-05-09T07:24:08.381Z,2.40
2024-05-09T07:27:14.915Z,2.40
2024-05-09T07:30:27.637Z,2.10
2024-05-09T07:33:40.173Z,2.50
2024-05-09T07:36:47.228Z,2.40
2024-05-09T07:39:53.858Z,2.20
2024-05-09T07:43:00.637Z,2.30
2024-05-09T07:47:13.890Z,2.00
2024-05-09T07:53:34.631Z,2.10
2024-05-09T07:56:14.100Z,2.40
2024-05-09T07:59:20.996Z,2.00
2024-05-09T08:02:27.966Z,2.40
2024-05-09T08:05:34.930Z,2.90
2024-05-09T08:08:41.695Z,2.20
2024-05-09T08:11:48.698Z,2.30
2024-05-09T08:14:56.353Z,2.00
2024-05-09T08:18:03.313Z,2.10
2024-05-09T08:21:10.178Z,2.20
2024-05-09T08:24:16.942Z,2.30
2024-05-09T08:27:23.166Z,2.20
2024-05-09T08:30:35.835Z,2.30
2024-05-09T08:33:51.024Z,2.30
2024-05-09T08:37:03.732Z,2.30
2024-05-09T08:40:23.927Z,2.30
2024-05-09T08:43:40.670Z,2.30
2024-05-09T08:46:50.979Z,2.20
2024-05-09T08:49:59.032Z,2.30
2024-05-09T08:53:05.846Z,2.10
2024-05-09T08:56:13.491Z,2.00
2024-05-09T08:59:24.954Z,1.90
2024-05-09T09:02:31.742Z,2.20
2024-05-09T09:05:40.687Z,2.20
2024-05-09T09:08:47.536Z,2.10
2024-05-09T09:11:54.012Z,2.00
2024-05-09T09:15:00.508Z,2.00
2024-05-09T09:18:11.596Z,2.10
2024-05-09T09:21:19.804Z,1.90
2024-05-09T09:24:26.133Z,2.00
2024-05-09T09:27:33.065Z,2.20
2024-05-09T09:30:42.533Z,2.10
2024-05-09T09:33:49.193Z,1.90
2024-05-09T09:36:56.280Z,2.20
2024-05-09T09:40:06.893Z,1.90
2024-05-09T09:43:18.560Z,1.80
2024-05-09T09:46:25.558Z,1.90
2024-05-09T09:49:36.485Z,1.80
2024-05-09T09:52:43.325Z,1.80
2024-05-09T09:55:50.727Z,1.80
2024-05-09T09:58:59.048Z,2.00
2024-05-09T10:02:06.069Z,1.90
2024-05-09T10:05:12.549Z,2.00
2024-05-09T10:08:21.866Z,1.70
2024-05-09T10:11:34.885Z,1.70
2024-05-09T10:14:50.143Z,1.70
2024-05-09T10:18:05.019Z,1.80
2024-05-09T10:21:21.675Z,1.90
2024-05-09T10:24:28.036Z,1.80
2024-05-09T10:27:34.750Z,1.70
2024-05-09T10:30:43.177Z,1.80
2024-05-09T10:33:51.938Z,1.50
2024-05-09T10:40:11.956Z,1.60
2024-05-09T10:43:24.664Z,1.70
2024-05-09T10:46:31.238Z,1.80
2024-05-09T10:49:37.914Z,1.50
2024-05-09T10:52:44.194Z,1.60
2024-05-09T10:55:59.424Z,1.70
2024-05-09T10:59:06.967Z,1.80
2024-05-09T11:02:14.717Z,1.80
2024-05-09T11:05:21.882Z,1.70
2024-05-09T11:08:28.671Z,1.60
2024-05-09T11:11:35.206Z,1.50
2024-05-09T11:14:41.914Z,1.60
2024-05-09T11:17:48.464Z,1.60
2024-05-09T11:20:55.903Z,1.60
2024-05-09T11:24:02.622Z,1.50
2024-05-09T11:27:09.053Z,1.90
2024-05-09T11:30:29.661Z,1.50
2024-05-09T11:33:40.631Z,1.60
2024-05-09T11:36:47.215Z,1.60
2024-05-09T11:39:54.092Z,1.80
2024-05-09T11:43:01.922Z,1.50
2024-05-09T11:46:08.794Z,1.50
2024-05-09T11:49:15.406Z,1.70
2024-05-09T11:52:22.076Z,1.50
2024-05-09T11:55:28.932Z,1.70
2024-05-09T11:58:36.770Z,1.60
2024-05-09T12:01:44.260Z,1.70
2024-05-09T12:04:51.208Z,1.70
2024-05-09T12:07:58.161Z,1.50
2024-05-09T12:11:04.951Z,1.60
2024-05-09T12:14:11.338Z,1.70
2024-05-09T12:17:18.408Z,1.60
2024-05-09T12:20:32.415Z,1.60
2024-05-09T12:23:43.104Z,1.60
2024-05-09T12:26:49.984Z,1.50
2024-05-09T12:29:56.597Z,1.70
2024-05-09T12:33:03.808Z,1.60
2024-05-09T12:36:11.703Z,1.60
2024-05-09T12:39:18.814Z,2.40
2024-05-09T12:42:27.859Z,1.60
2024-05-09T12:45:35.401Z,1.60
2024-05-09T12:48:42.327Z,1.50
2024-05-09T12:51:49.332Z,1.60
2024-05-09T12:54:55.975Z,3.00
2024-05-09T12:58:02.546Z,1.40
2024-05-09T13:01:09.045Z,1.60
2024-05-09T13:04:15.866Z,1.70
2024-05-09T13:07:23.198Z,1.60
2024-05-09T13:10:32.738Z,1.60
2024-05-09T13:13:40.752Z,1.60
2024-05-09T13:16:47.954Z,1.70
2024-05-09T13:19:54.668Z,1.50
2024-05-09T13:23:02.506Z,1.50
2024-05-09T13:26:09.007Z,1.70
2024-05-09T13:29:15.354Z,1.60
2024-05-09T13:32:22.069Z,1.70
2024-05-09T13:35:29.145Z,1.50
2024-05-09T13:38:35.584Z,1.50
2024-05-09T13:41:42.350Z,1.50
2024-05-09T13:44:49.452Z,1.60
2024-05-09T13:47:56.728Z,2.00
2024-05-09T13:51:03.362Z,1.50
2024-05-09T13:54:10.299Z,1.60
2024-05-09T13:57:16.580Z,1.50
2024-05-09T14:00:37.636Z,1.70
2024-05-09T14:03:50.531Z,1.50
2024-05-09T14:06:57.110Z,1.80
2024-05-09T14:10:06.516Z,1.40
2024-05-09T14:13:18.501Z,1.40
2024-05-09T14:16:25.216Z,1.60
2024-05-09T14:19:32.004Z,1.50
2024-05-09T14:22:41.299Z,1.60
2024-05-09T14:25:51.309Z,1.50
2024-05-09T14:28:59.044Z,1.50
2024-05-09T14:32:07.393Z,1.50
2024-05-09T14:35:14.409Z,1.50
2024-05-09T14:38:21.172Z,1.90
2024-05-09T14:41:28.052Z,1.70
2024-05-09T14:44:34.572Z,1.50
2024-05-09T14:47:41.464Z,1.50
2024-05-09T14:50:48.198Z,1.60
2024-05-09T14:53:55.474Z,1.80
2024-05-09T14:57:02.065Z,1.60
2024-05-09T15:00:17.474Z,1.50
2024-05-09T15:03:32.449Z,1.50
2024-05-09T15:06:41.357Z,1.40
2024-05-09T15:09:47.961Z,1.70
2024-05-09T15:12:55.207Z,1.60
2024-05-09T15:16:01.725Z,1.60
2024-05-09T15:19:10.121Z,1.50
2024-05-09T15:22:17.131Z,1.50
2024-05-09T15:25:24.563Z,1.60
2024-05-09T15:28:31.878Z,1.60
2024-05-09T15:31:38.507Z,1.90
2024-05-09T15:34:45.949Z,2.00
2024-05-09T15:37:55.810Z,1.90
2024-05-09T15:41:02.979Z,1.80
2024-05-09T15:44:09.158Z,1.60
2024-05-09T15:47:15.565Z,1.80
2024-05-09T15:50:32.079Z,1.60
2024-05-09T15:53:44.059Z,1.60
2024-05-09T15:56:50.915Z,1.70
2024-05-09T15:59:57.845Z,1.70
2024-05-09T16:03:04.387Z,1.80
2024-05-09T16:06:11.263Z,1.60
2024-05-09T16:09:17.794Z,1.60
2024-05-09T16:12:25.117Z,1.70
2024-05-09T16:15:32.095Z,1.80
2024-05-09T16:18:39.250Z,1.60
2024-05-09T16:21:45.770Z,1.50
2024-05-09T16:24:52.213Z,2.00
2024-05-09T16:27:58.710Z,1.70
2024-05-09T16:31:05.585Z,1.70
2024-05-09T16:34:12.408Z,1.70
2024-05-09T16:37:19.154Z,1.90
2024-05-09T16:40:34.395Z,1.60
2024-05-09T16:43:45.571Z,1.60
2024-05-09T16:46:51.959Z,1.70
2024-05-09T16:49:58.318Z,1.70
2024-05-09T16:53:06.264Z,1.70
2024-05-09T16:56:13.557Z,1.50
2024-05-09T16:59:22.348Z,1.60
2024-05-09T17:02:30.400Z,1.60
2024-05-09T17:05:39.772Z,1.70
2024-05-09T17:08:46.498Z,1.60
2024-05-09T17:11:53.371Z,1.70
2024-05-09T17:15:00.299Z,1.90
2024-05-09T17:18:07.933Z,2.00
2024-05-09T17:21:15.530Z,2.20
2024-05-09T17:24:21.921Z,1.70
2024-05-09T17:27:28.503Z,2.40
2024-05-09T17:30:37.264Z,2.30
2024-05-09T17:33:45.966Z,2.00
2024-05-09T17:36:53.105Z,2.20
2024-05-09T17:39:59.825Z,1.90
2024-05-09T17:43:07.821Z,2.00
2024-05-09T17:49:20.852Z,1.80
2024-05-09T17:52:27.162Z,2.00
2024-05-09T17:55:34.051Z,1.90
2024-05-09T17:58:40.888Z,2.00
2024-05-09T18:01:47.665Z,1.90
2024-05-09T18:04:54.650Z,1.90
2024-05-09T18:08:01.349Z,2.20
2024-05-09T18:11:07.790Z,1.80
2024-05-09T18:14:14.516Z,2.10
2024-05-09T18:17:23.631Z,2.40
2024-05-09T18:20:40.987Z,2.20
2024-05-09T18:23:54.870Z,2.20
2024-05-09T18:27:02.789Z,2.50
2024-05-09T18:30:23.765Z,2.60
2024-05-09T18:33:35.252Z,2.30
2024-05-09T18:36:42.254Z,2.40
2024-05-09T18:39:49.018Z,2.40
2024-05-09T18:42:56.002Z,2.40
2024-05-09T18:46:03.432Z,2.50
2024-05-09T18:49:10.366Z,2.40
2024-05-09T18:52:17.265Z,2.20
2024-05-09T18:55:23.966Z,2.40
2024-05-09T18:58:30.711Z,2.20
2024-05-09T19:01:40.673Z,2.50
2024-05-09T19:04:48.285Z,2.50
2024-05-09T19:07:54.784Z,2.40
2024-05-09T19:11:03.009Z,2.10
2024-05-09T19:14:09.686Z,2.40
2024-05-09T19:17:16.212Z,2.40
2024-05-09T19:20:28.685Z,2.30
2024-05-09T19:23:47.069Z,2.20
2024-05-09T19:26:59.202Z,2.30
2024-05-09T19:30:17.384Z,2.20
2024-05-09T19:33:32.082Z,2.20
2024-05-09T19:36:39.216Z,2.00
2024-05-09T19:39:46.368Z,3.40
2024-05-09T19:42:53.341Z,2.20
2024-05-09T19:46:00.490Z,2.30
2024-05-09T19:49:08.372Z,2.00
2024-05-09T19:52:16.060Z,2.20
2024-05-09T19:55:22.515Z,2.30
2024-05-09T19:58:29.675Z,2.30
2024-05-09T20:01:36.863Z,2.30
2024-05-09T20:04:45.593Z,2.20
2024-05-09T20:07:52.774Z,2.00
2024-05-09T20:11:00.198Z,2.20
2024-05-09T20:14:07.138Z,2.20
2024-05-09T20:17:13.727Z,2.20
2024-05-09T20:20:32.442Z,2.00
2024-05-09T20:23:44.199Z,2.30
2024-05-09T20:26:51.244Z,2.10
2024-05-09T20:29:58.660Z,2.00
2024-05-09T20:33:07.618Z,2.20
2024-05-09T20:36:15.918Z,2.00
2024-05-09T20:39:26.860Z,2.20
2024-05-09T20:42:34.185Z,2.20
2024-05-09T20:45:42.388Z,2.10
2024-05-09T20:48:49.277Z,2.10
2024-05-09T20:51:55.736Z,2.30
2024-05-09T20:55:02.376Z,2.20
2024-05-09T20:58:09.609Z,2.10
2024-05-09T21:01:17.016Z,2.10
2024-05-09T21:04:24.107Z,2.00
2024-05-09T21:07:30.812Z,2.10
2024-05-09T21:10:38.008Z,2.10
2024-05-09T21:13:44.957Z,2.20
2024-05-09T21:16:51.824Z,2.10
2024-05-09T21:19:58.333Z,2.20
2024-05-09T21:23:04.675Z,2.20
2024-05-09T21:26:11.658Z,2.30
2024-05-09T21:29:18.447Z,2.10
2024-05-09T21:32:25.214Z,2.00
2024-05-09T21:35:33.432Z,2.30
2024-05-09T21:38:42.356Z,2.10
2024-05-09T21:41:48.634Z,1.90
2024-05-09T21:44:55.227Z,2.00
2024-05-09T21:48:03.836Z,2.20
2024-05-09T21:51:16.127Z,2.20
2024-05-09T21:54:22.443Z,2.10
2024-05-09T21:57:28.622Z,2.10
2024-05-09T22:00:37.992Z,2.20
2024-05-09T22:03:45.947Z,2.30
2024-05-09T22:06:52.206Z,2.00
2024-05-09T22:09:59.047Z,2.10
2024-05-09T22:13:06.375Z,2.00
2024-05-09T22:16:13.045Z,2.20
2024-05-09T22:19:19.486Z,2.30
2024-05-09T22:22:25.970Z,2.20
2024-05-09T22:25:32.805Z,2.20
2024-05-09T22:28:39.863Z,1.90
2024-05-09T22:31:46.033Z,2.20
2024-05-09T22:34:53.026Z,2.60
2024-05-09T22:37:59.263Z,2.00
2024-05-09T22:41:08.102Z,2.20
2024-05-09T22:44:14.269Z,2.20
2024-05-09T22:47:20.641Z,2.00
2024-05-09T22:50:30.843Z,2.30
2024-05-09T22:53:39.823Z,2.30
2024-05-09T22:56:46.434Z,2.20
2024-05-09T22:59:52.981Z,2.20
2024-05-09T23:02:59.746Z,2.10
2024-05-09T23:06:09.672Z,2.20
2024-05-09T23:09:15.861Z,2.60
2024-05-09T23:12:22.140Z,2.00
2024-05-09T23:15:28.299Z,2.10
2024-05-09T23:18:34.670Z,2.20
2024-05-09T23:21:42.345Z,2.20
2024-05-09T23:24:48.889Z,2.10
2024-05-09T23:27:55.436Z,2.00
2024-05-09T23:31:02.083Z,2.10
2024-05-09T23:34:08.338Z,2.20
2024-05-09T23:37:14.906Z,2.20
2024-05-09T23:40:23.340Z,2.10
2024-05-09T23:43:30.903Z,2.20
2024-05-09T23:46:37.294Z,2.30
2024-05-09T23:49:44.165Z,2.20
2024-05-09T23:52:50.639Z,2.20
2024-05-09T23:55:56.966Z,2.20
2024-05-09T23:59:03.533Z,2.00
